createdAt,value
2022-12-11T00:00:59.011Z,29.58
2022-12-11T00:04:02.958Z,28.45
2022-12-11T00:07:05.572Z,29.60
2022-12-11T00:10:09.433Z,27.00
2022-12-11T00:13:12.020Z,30.13
2022-12-11T00:16:14.701Z,29.40
2022-12-11T00:19:18.673Z,29.70
2022-12-11T00:22:21.276Z,29.23
2022-12-11T00:25:23.837Z,28.70
2022-12-11T00:28:26.489Z,28.48
2022-12-11T00:31:29.108Z,26.45
2022-12-11T00:34:33.060Z,26.05
2022-12-11T00:37:35.732Z,25.65
2022-12-11T00:40:38.418Z,25.08
2022-12-11T00:43:41.030Z,22.23
2022-12-11T00:46:43.640Z,22.50
2022-12-11T00:49:49.937Z,22.20
2022-12-11T00:52:52.859Z,20.87
2022-12-11T00:55:55.482Z,23.95
2022-12-11T00:58:58.101Z,22.65
2022-12-11T01:02:00.722Z,22.63
2022-12-11T01:05:05.061Z,20.55
2022-12-11T01:08:07.788Z,22.40
2022-12-11T01:11:11.814Z,24.20
2022-12-11T01:14:14.433Z,24.67
2022-12-11T01:17:16.991Z,25.60
2022-12-11T01:20:21.032Z,24.98
2022-12-11T01:23:23.629Z,23.70
2022-12-11T01:26:26.261Z,21.90
2022-12-11T01:29:28.833Z,22.35
2022-12-11T01:32:31.521Z,23.52
2022-12-11T01:35:35.556Z,22.05
2022-12-11T01:38:38.144Z,20.33
2022-12-11T01:41:40.774Z,23.85
2022-12-11T01:45:27.178Z,24.20
2022-12-11T01:48:31.424Z,26.13
2022-12-11T01:51:37.066Z,24.50
2022-12-11T01:54:39.778Z,27.48
2022-12-11T01:57:43.305Z,26.73
2022-12-11T02:00:45.914Z,27.80
2022-12-11T02:03:48.485Z,29.75
2022-12-11T02:06:52.838Z,31.05
2022-12-11T02:09:55.455Z,26.77
2022-12-11T02:13:00.027Z,29.77
2022-12-11T02:16:06.926Z,27.83
2022-12-11T02:19:15.989Z,27.35
2022-12-11T02:22:23.747Z,29.17
2022-12-11T02:25:28.819Z,30.08
2022-12-11T02:28:33.258Z,26.67
2022-12-11T02:31:37.534Z,30.20
2022-12-11T02:34:42.082Z,33.95
2022-12-11T02:37:45.573Z,32.05
2022-12-11T02:40:48.132Z,32.85
2022-12-11T02:43:52.339Z,36.83
2022-12-11T02:46:54.929Z,33.28
2022-12-11T02:49:57.542Z,30.63
2022-12-11T02:53:00.123Z,34.25
2022-12-11T02:56:05.450Z,34.08
2022-12-11T02:59:11.326Z,32.67
2022-12-11T03:02:14.377Z,34.85
2022-12-11T03:05:16.981Z,34.63
2022-12-11T03:08:19.574Z,35.10
2022-12-11T03:11:22.145Z,33.40
2022-12-11T03:14:26.145Z,30.42
2022-12-11T03:17:31.286Z,33.97
2022-12-11T03:20:37.940Z,30.63
2022-12-11T03:23:42.452Z,31.27
2022-12-11T03:26:46.085Z,31.50
2022-12-11T03:29:56.865Z,29.85
2022-12-11T03:33:00.689Z,31.08
2022-12-11T03:36:06.334Z,31.13
2022-12-11T03:39:10.276Z,29.50
2022-12-11T03:42:13.823Z,28.88
2022-12-11T03:45:17.858Z,29.45
2022-12-11T03:48:20.427Z,25.05
2022-12-11T03:51:24.071Z,28.30
2022-12-11T03:54:26.644Z,26.48
2022-12-11T03:57:31.108Z,24.30
2022-12-11T04:00:35.094Z,23.00
2022-12-11T04:03:37.786Z,23.83
2022-12-11T04:06:40.378Z,23.90
2022-12-11T04:09:42.912Z,24.23
2022-12-11T04:12:45.525Z,22.58
2022-12-11T04:15:49.604Z,24.83
2022-12-11T04:19:10.020Z,21.95
2022-12-11T04:22:29.628Z,20.80
2022-12-11T04:25:32.257Z,21.25
2022-12-11T04:28:34.874Z,20.80
2022-12-11T04:31:38.795Z,23.02
2022-12-11T04:34:41.685Z,19.63
2022-12-11T04:37:44.260Z,18.27
2022-12-11T04:40:46.835Z,20.02
2022-12-11T04:43:49.393Z,19.70
2022-12-11T04:46:53.389Z,19.85
2022-12-11T04:49:56.037Z,17.95
2022-12-11T04:52:58.622Z,19.38
2022-12-11T04:56:01.208Z,17.85
2022-12-11T04:59:03.765Z,19.98
2022-12-11T05:02:07.715Z,18.08
2022-12-11T05:05:11.273Z,18.65
2022-12-11T05:08:14.014Z,17.10
2022-12-11T05:11:17.450Z,16.55
2022-12-11T05:14:20.173Z,16.35
2022-12-11T05:17:24.093Z,15.15
2022-12-11T05:20:26.661Z,15.35
2022-12-11T05:23:29.595Z,16.27
2022-12-11T05:26:32.147Z,16.42
2022-12-11T05:29:34.773Z,15.10
2022-12-11T05:32:38.713Z,16.20
2022-12-11T05:35:47.129Z,15.77
2022-12-11T05:38:49.779Z,16.52
2022-12-11T05:41:52.391Z,15.48
2022-12-11T05:44:54.977Z,16.02
2022-12-11T05:47:58.987Z,15.43
2022-12-11T05:51:01.933Z,16.20
2022-12-11T05:54:05.162Z,14.25
2022-12-11T05:57:07.773Z,17.05
2022-12-11T06:00:12.488Z,15.68
2022-12-11T06:03:16.435Z,16.23
2022-12-11T06:06:19.034Z,16.70
2022-12-11T06:09:21.613Z,17.30
2022-12-11T06:12:24.341Z,14.63
2022-12-11T06:15:26.973Z,17.48
2022-12-11T06:18:31.001Z,16.38
2022-12-11T06:21:33.986Z,17.75
2022-12-11T06:24:36.653Z,16.60
2022-12-11T06:27:39.271Z,19.08
2022-12-11T06:30:41.853Z,20.02
2022-12-11T06:33:45.812Z,20.08
2022-12-11T06:36:48.409Z,18.42
2022-12-11T06:39:51.018Z,20.27
2022-12-11T06:42:54.504Z,18.27
2022-12-11T06:46:03.426Z,20.70
2022-12-11T06:49:07.885Z,21.23
2022-12-11T06:52:15.009Z,19.73
2022-12-11T06:55:20.716Z,20.67
2022-12-11T06:58:23.317Z,21.27
2022-12-11T07:01:26.683Z,20.25
2022-12-11T07:04:30.679Z,21.00
2022-12-11T07:07:33.290Z,20.58
2022-12-11T07:10:35.977Z,14.68
2022-12-11T07:13:38.557Z,22.00
2022-12-11T07:16:41.301Z,19.13
2022-12-11T07:19:45.538Z,19.75
2022-12-11T07:22:48.109Z,16.50
2022-12-11T07:25:50.696Z,13.93
2022-12-11T07:28:53.297Z,16.55
2022-12-11T07:31:55.951Z,17.52
2022-12-11T07:35:00.006Z,19.58
2022-12-11T07:38:02.605Z,16.48
2022-12-11T07:41:06.253Z,18.58
2022-12-11T07:44:08.842Z,19.63
2022-12-11T07:47:11.390Z,18.30
2022-12-11T07:50:15.381Z,18.73
2022-12-11T07:53:17.992Z,20.05
2022-12-11T07:56:20.575Z,19.17
2022-12-11T07:59:23.117Z,19.13
2022-12-11T08:02:25.693Z,19.63
2022-12-11T08:05:29.668Z,19.83
2022-12-11T08:08:32.272Z,18.55
2022-12-11T08:11:34.868Z,19.05
2022-12-11T08:14:37.665Z,17.67
2022-12-11T08:17:40.656Z,19.63
2022-12-11T08:20:44.574Z,17.33
2022-12-11T08:23:47.235Z,15.57
2022-12-11T08:26:49.807Z,18.00
2022-12-11T08:29:52.385Z,15.02
2022-12-11T08:32:54.945Z,16.83
2022-12-11T08:35:58.901Z,15.65
2022-12-11T08:39:01.908Z,16.35
2022-12-11T08:42:05.186Z,15.90
2022-12-11T08:45:09.588Z,16.45
2022-12-11T08:48:12.507Z,15.20
2022-12-11T08:51:17.194Z,17.77
2022-12-11T08:54:19.774Z,17.17
2022-12-11T08:57:22.398Z,18.25
2022-12-11T09:00:24.978Z,17.98
2022-12-11T09:03:27.541Z,19.20
2022-12-11T09:06:31.599Z,17.92
2022-12-11T09:09:34.203Z,17.48
2022-12-11T09:12:37.021Z,17.67
2022-12-11T09:15:41.459Z,18.42
2022-12-11T09:18:44.097Z,16.17
2022-12-11T09:21:48.061Z,19.48
2022-12-11T09:24:50.641Z,18.67
2022-12-11T09:27:53.228Z,18.48
2022-12-11T09:30:55.880Z,16.52
2022-12-11T09:33:59.254Z,18.67
2022-12-11T09:37:03.218Z,22.13
2022-12-11T09:40:07.887Z,21.63
2022-12-11T09:43:16.413Z,19.95
2022-12-11T09:46:21.607Z,21.58
2022-12-11T09:49:29.867Z,20.05
2022-12-11T09:52:36.152Z,21.35
2022-12-11T09:55:43.177Z,22.75
2022-12-11T09:58:54.890Z,20.48
2022-12-11T10:02:01.542Z,18.55
2022-12-11T10:05:09.066Z,15.67
2022-12-11T10:08:15.555Z,22.42
2022-12-11T10:11:37.253Z,21.48
2022-12-11T10:14:46.621Z,22.13
2022-12-11T10:17:49.193Z,24.77
2022-12-11T10:20:52.688Z,24.35
2022-12-11T10:23:58.948Z,23.50
2022-12-11T10:27:02.507Z,22.92
2022-12-11T10:30:21.437Z,21.98
2022-12-11T10:33:25.574Z,23.48
2022-12-11T10:36:29.593Z,25.98
2022-12-11T10:39:33.536Z,26.13
2022-12-11T10:42:38.938Z,25.83
2022-12-11T10:45:52.457Z,23.75
2022-12-11T10:48:55.828Z,23.95
2022-12-11T10:52:01.275Z,25.85
2022-12-11T10:55:06.952Z,23.67
2022-12-11T10:58:15.082Z,23.90
2022-12-11T11:01:19.950Z,21.25
2022-12-11T11:04:26.038Z,23.33
2022-12-11T11:07:29.339Z,23.67
2022-12-11T11:10:33.272Z,22.80
2022-12-11T11:13:36.287Z,20.90
2022-12-11T11:16:39.228Z,20.08
2022-12-11T11:19:41.842Z,21.67
2022-12-11T11:22:46.343Z,19.83
2022-12-11T11:25:54.267Z,19.63
2022-12-11T11:28:57.065Z,20.23
2022-12-11T11:32:00.654Z,17.52
2022-12-11T11:35:16.880Z,18.92
2022-12-11T11:38:20.736Z,19.65
2022-12-11T11:41:27.157Z,15.38
2022-12-11T11:44:32.518Z,17.17
2022-12-11T11:47:37.479Z,18.33
2022-12-11T11:50:40.018Z,18.70
2022-12-11T11:53:42.665Z,19.58
2022-12-11T11:56:46.598Z,20.35
2022-12-11T11:59:50.980Z,18.23
2022-12-11T12:02:55.249Z,18.88
2022-12-11T12:05:59.429Z,19.45
2022-12-11T12:09:09.098Z,12.52
2022-12-11T12:12:26.367Z,16.27
2022-12-11T12:15:36.444Z,14.27
2022-12-11T12:18:41.775Z,16.65
2022-12-11T12:21:44.878Z,15.95
2022-12-11T12:24:50.777Z,14.63
2022-12-11T12:27:59.421Z,15.55
2022-12-11T12:31:09.508Z,18.33
2022-12-11T12:34:16.546Z,13.90
2022-12-11T12:37:23.904Z,16.38
2022-12-11T12:40:30.870Z,18.23
2022-12-11T12:43:44.379Z,16.48
2022-12-11T12:46:52.309Z,17.58
2022-12-11T12:49:54.901Z,14.95
2022-12-11T12:52:57.465Z,13.75
2022-12-11T12:56:00.077Z,17.33
2022-12-11T12:59:04.038Z,13.02
2022-12-11T13:02:08.840Z,13.02
2022-12-11T13:05:21.337Z,15.82
2022-12-11T13:08:25.748Z,21.60
2022-12-11T13:11:32.669Z,18.52
2022-12-11T13:14:36.630Z,20.77
2022-12-11T13:17:39.644Z,20.73
2022-12-11T13:20:48.062Z,22.73
2022-12-11T13:23:50.609Z,24.27
2022-12-11T13:26:53.359Z,23.25
2022-12-11T13:30:07.424Z,24.13
2022-12-11T13:33:16.070Z,19.10
2022-12-11T13:36:35.800Z,21.90
2022-12-11T13:39:38.913Z,22.85
2022-12-11T13:42:44.958Z,23.65
2022-12-11T13:45:50.326Z,22.17
2022-12-11T13:48:55.164Z,19.65
2022-12-11T13:51:58.659Z,20.20
2022-12-11T13:55:01.283Z,19.73
2022-12-11T13:58:03.828Z,17.55
2022-12-11T14:01:11.025Z,17.20
2022-12-11T14:04:16.687Z,17.40
2022-12-11T14:07:23.817Z,18.25
2022-12-11T14:10:27.419Z,18.35
2022-12-11T14:13:32.677Z,13.18
2022-12-11T14:16:37.178Z,15.68
2022-12-11T14:19:39.830Z,18.52
2022-12-11T14:22:42.401Z,19.00
2022-12-11T14:25:53.311Z,16.30
2022-12-11T14:28:56.095Z,17.52
2022-12-11T14:32:01.762Z,18.95
2022-12-11T14:35:06.460Z,20.40
2022-12-11T14:38:12.371Z,20.98
2022-12-11T14:41:18.064Z,21.65
2022-12-11T14:44:21.044Z,21.00
2022-12-11T14:47:25.949Z,21.45
2022-12-11T14:50:31.076Z,19.27
2022-12-11T14:53:35.192Z,20.23
2022-12-11T14:56:37.781Z,21.02
2022-12-11T14:59:44.916Z,19.17
2022-12-11T15:02:57.877Z,17.92
2022-12-11T15:06:00.551Z,16.77
2022-12-11T15:09:26.066Z,18.80
2022-12-11T15:12:28.682Z,18.58
2022-12-11T15:15:31.753Z,16.73
2022-12-11T15:18:36.793Z,18.60
2022-12-11T15:21:39.486Z,18.88
2022-12-11T15:24:42.746Z,17.60
2022-12-11T15:27:45.546Z,13.88
2022-12-11T15:30:56.427Z,18.83
2022-12-11T15:34:00.355Z,18.65
2022-12-11T15:37:03.007Z,17.98
2022-12-11T15:40:06.504Z,17.60
2022-12-11T15:43:09.629Z,17.73
2022-12-11T15:46:12.268Z,18.55
2022-12-11T15:49:16.252Z,17.60
2022-12-11T15:52:18.841Z,17.73
2022-12-11T15:55:21.780Z,17.98
2022-12-11T15:58:24.482Z,18.90
2022-12-11T16:01:27.058Z,19.02
2022-12-11T16:04:31.057Z,19.33
2022-12-11T16:07:34.101Z,19.17
2022-12-11T16:10:37.527Z,18.17
2022-12-11T16:13:40.166Z,17.83
2022-12-11T16:16:42.772Z,18.50
2022-12-11T16:19:46.764Z,18.33
2022-12-11T16:22:49.382Z,19.35
2022-12-11T16:25:51.993Z,19.10
2022-12-11T16:28:54.560Z,19.50
2022-12-11T16:31:57.168Z,20.00
2022-12-11T16:35:01.484Z,18.58
2022-12-11T16:38:04.110Z,21.02
2022-12-11T16:41:07.120Z,21.55
2022-12-11T16:44:10.444Z,20.45
2022-12-11T16:47:13.048Z,20.70
2022-12-11T16:50:17.389Z,21.63
2022-12-11T16:53:19.948Z,20.90
2022-12-11T16:56:22.604Z,21.45
2022-12-11T16:59:25.168Z,21.38
2022-12-11T17:02:27.788Z,22.98
2022-12-11T17:05:31.789Z,23.30
2022-12-11T17:08:34.427Z,22.40
2022-12-11T17:11:37.032Z,21.98
2022-12-11T17:14:39.658Z,23.10
2022-12-11T17:17:43.097Z,20.92
2022-12-11T17:20:47.012Z,21.02
2022-12-11T17:23:49.580Z,23.58
2022-12-11T17:26:52.199Z,25.40
2022-12-11T17:29:54.769Z,22.98
2022-12-11T17:32:57.369Z,23.17
2022-12-11T17:36:01.811Z,22.88
2022-12-11T17:39:04.507Z,22.23
2022-12-11T17:42:07.272Z,20.48
2022-12-11T17:45:10.863Z,22.27
2022-12-11T17:48:13.889Z,21.67
2022-12-11T17:51:21.791Z,20.80
2022-12-11T17:54:24.525Z,21.08
2022-12-11T17:57:27.119Z,21.15
2022-12-11T18:00:33.229Z,22.48
2022-12-11T18:03:36.239Z,22.05
2022-12-11T18:06:40.282Z,22.00
2022-12-11T18:09:42.877Z,23.38
2022-12-11T18:12:45.478Z,22.38
2022-12-11T18:15:48.617Z,24.48
2022-12-11T18:18:52.037Z,23.30
2022-12-11T18:21:56.065Z,25.75
2022-12-11T18:24:59.156Z,22.33
2022-12-11T18:28:01.760Z,23.27
2022-12-11T18:31:04.588Z,23.60
2022-12-11T18:34:07.212Z,23.50
2022-12-11T18:37:11.114Z,23.10
2022-12-11T18:40:13.682Z,23.77
2022-12-11T18:43:16.242Z,24.25
2022-12-11T18:46:19.899Z,24.67
2022-12-11T18:49:22.665Z,25.15
2022-12-11T18:52:26.593Z,24.40
2022-12-11T18:55:29.194Z,25.75
2022-12-11T18:58:31.812Z,27.55
2022-12-11T19:01:34.588Z,28.65
2022-12-11T19:04:37.592Z,28.45
2022-12-11T19:07:41.533Z,28.00
2022-12-11T19:10:47.004Z,26.95
2022-12-11T19:13:49.707Z,25.73
2022-12-11T19:16:52.318Z,29.02
2022-12-11T19:19:54.865Z,27.55
2022-12-11T19:22:58.821Z,26.73
2022-12-11T19:26:01.565Z,26.48
2022-12-11T19:29:04.386Z,23.00
2022-12-11T19:32:07.036Z,24.58
2022-12-11T19:35:10.196Z,21.63
2022-12-11T19:38:14.506Z,23.77
2022-12-11T19:41:18.363Z,24.30
2022-12-11T19:44:20.982Z,22.67
2022-12-11T19:47:23.586Z,24.45
2022-12-11T19:50:26.200Z,23.30
2022-12-11T19:53:30.288Z,24.67
2022-12-11T19:56:33.112Z,23.88
2022-12-11T19:59:35.721Z,23.52
2022-12-11T20:02:38.341Z,23.48
2022-12-11T20:05:40.976Z,22.52
2022-12-11T20:08:46.003Z,22.48
2022-12-11T20:11:48.932Z,22.98
2022-12-11T20:14:51.561Z,23.42
2022-12-11T20:17:54.239Z,23.30
2022-12-11T20:20:56.869Z,22.90
2022-12-11T20:24:00.812Z,20.23
2022-12-11T20:27:03.380Z,22.38
2022-12-11T20:30:07.322Z,22.92
2022-12-11T20:33:09.962Z,24.42
2022-12-11T20:36:13.608Z,23.58
2022-12-11T20:39:17.548Z,23.77
2022-12-11T20:42:20.130Z,23.13
2022-12-11T20:45:22.778Z,24.48
2022-12-11T20:48:25.932Z,20.48
2022-12-11T20:51:29.027Z,23.85
2022-12-11T20:54:32.953Z,23.35
2022-12-11T20:57:37.346Z,24.63
2022-12-11T21:00:43.765Z,24.02
2022-12-11T21:03:46.629Z,24.58
2022-12-11T21:06:55.050Z,23.15
2022-12-11T21:09:58.966Z,25.45
2022-12-11T21:13:01.568Z,25.27
2022-12-11T21:16:06.132Z,24.15
2022-12-11T21:19:13.683Z,26.85
2022-12-11T21:22:19.074Z,25.42
2022-12-11T21:25:23.011Z,23.70
2022-12-11T21:28:29.292Z,22.95
2022-12-11T21:31:34.671Z,23.65
2022-12-11T21:34:37.719Z,24.50
2022-12-11T21:37:41.797Z,23.15
2022-12-11T21:40:45.736Z,22.02
2022-12-11T21:47:11.536Z,25.88
2022-12-11T21:50:14.129Z,25.02
2022-12-11T21:53:16.718Z,18.67
2022-12-11T21:56:21.505Z,25.48
2022-12-11T21:59:24.145Z,26.40
2022-12-11T22:02:26.776Z,26.05
2022-12-11T22:05:29.372Z,23.02
2022-12-11T22:08:32.016Z,26.67
2022-12-11T22:11:36.217Z,26.17
2022-12-11T22:14:38.755Z,27.73
2022-12-11T22:17:41.312Z,26.10
2022-12-11T22:20:44.489Z,23.65
2022-12-11T22:23:47.080Z,25.92
2022-12-11T22:26:51.276Z,26.67
2022-12-11T22:29:53.957Z,25.08
2022-12-11T22:32:56.520Z,25.60
2022-12-11T22:35:59.682Z,26.35
2022-12-11T22:39:02.807Z,26.23
2022-12-11T22:42:06.914Z,26.35
2022-12-11T22:45:11.026Z,25.67
2022-12-11T22:48:13.864Z,24.55
2022-12-11T22:51:16.419Z,26.88
2022-12-11T22:54:18.978Z,27.90
2022-12-11T22:57:22.921Z,25.58
2022-12-11T23:00:25.774Z,28.25
2022-12-11T23:03:28.468Z,25.77
2022-12-11T23:06:31.111Z,25.95
2022-12-11T23:09:33.714Z,25.58
2022-12-11T23:12:37.710Z,26.20
2022-12-11T23:15:40.305Z,26.42
2022-12-11T23:18:43.017Z,26.15
2022-12-11T23:21:45.560Z,25.40
2022-12-11T23:24:48.138Z,24.05
2022-12-11T23:27:52.105Z,25.40
2022-12-11T23:30:55.028Z,25.25
2022-12-11T23:33:58.017Z,23.13
2022-12-11T23:37:00.655Z,24.35
2022-12-11T23:40:03.245Z,22.33
2022-12-11T23:43:07.223Z,23.65
2022-12-11T23:46:12.817Z,23.77
2022-12-11T23:49:15.479Z,23.83
2022-12-11T23:52:18.098Z,24.60
2022-12-11T23:55:20.760Z,24.23
2022-12-11T23:58:24.694Z,24.27
